createdAt,value
2023-12-31T00:00:27.096Z,16.80
2023-12-31T00:03:15.135Z,18.10
2023-12-31T00:05:43.729Z,20.70
2023-12-31T00:08:12.700Z,17.80
2023-12-31T00:10:41.740Z,15.40
2023-12-31T00:13:10.180Z,20.90
2023-12-31T00:15:38.958Z,18.10
2023-12-31T00:18:07.068Z,18.40
2023-12-31T00:20:35.310Z,22.40
2023-12-31T00:23:04.340Z,21.10
2023-12-31T00:25:32.960Z,20.90
2023-12-31T00:28:01.047Z,19.40
2023-12-31T00:30:30.177Z,17.80
2023-12-31T00:32:58.623Z,19.10
2023-12-31T00:35:27.225Z,21.40
2023-12-31T00:37:55.394Z,22.00
2023-12-31T00:40:23.660Z,20.50
2023-12-31T00:42:52.589Z,21.50
2023-12-31T00:45:20.732Z,20.20
2023-12-31T00:47:48.986Z,19.20
2023-12-31T00:50:19.987Z,21.10
2023-12-31T00:52:48.288Z,18.70
2023-12-31T00:55:16.829Z,20.00
2023-12-31T00:57:45.025Z,17.60
2023-12-31T01:00:14.696Z,21.70
2023-12-31T01:02:42.871Z,19.30
2023-12-31T01:05:10.942Z,17.70
2023-12-31T01:07:38.917Z,17.40
2023-12-31T01:10:07.769Z,17.50
2023-12-31T01:12:36.464Z,19.30
2023-12-31T01:15:05.543Z,18.90
2023-12-31T01:17:33.582Z,20.40
2023-12-31T01:20:02.195Z,18.00
2023-12-31T01:22:31.491Z,17.70
2023-12-31T01:24:59.556Z,19.00
2023-12-31T01:27:28.187Z,17.20
2023-12-31T01:29:56.466Z,18.60
2023-12-31T01:32:24.736Z,18.30
2023-12-31T01:34:54.350Z,18.90
2023-12-31T01:37:23.760Z,18.20
2023-12-31T01:39:52.014Z,19.10
2023-12-31T01:42:20.055Z,21.20
2023-12-31T01:44:48.036Z,16.70
2023-12-31T01:47:16.401Z,19.40
2023-12-31T01:49:44.482Z,21.00
2023-12-31T01:52:13.147Z,19.30
2023-12-31T01:54:41.906Z,17.60
2023-12-31T01:57:11.238Z,16.50
2023-12-31T01:59:39.435Z,18.80
2023-12-31T02:02:08.470Z,21.20
2023-12-31T02:04:36.718Z,19.30
2023-12-31T02:07:05.027Z,18.20
2023-12-31T02:09:33.053Z,17.40
2023-12-31T02:12:01.076Z,20.70
2023-12-31T02:14:29.227Z,20.20
2023-12-31T02:16:57.592Z,19.10
2023-12-31T02:19:26.302Z,19.00
2023-12-31T02:21:54.230Z,19.50
2023-12-31T02:24:22.413Z,16.90
2023-12-31T02:26:50.590Z,20.00
2023-12-31T02:29:18.886Z,18.10
2023-12-31T02:31:47.468Z,20.10
2023-12-31T02:34:15.932Z,18.80
2023-12-31T02:36:44.433Z,18.60
2023-12-31T02:39:12.594Z,19.80
2023-12-31T02:41:40.761Z,19.10
2023-12-31T02:44:08.780Z,17.80
2023-12-31T02:46:37.237Z,17.60
2023-12-31T02:49:07.861Z,17.30
2023-12-31T02:51:35.977Z,16.60
2023-12-31T02:54:05.313Z,17.00
2023-12-31T02:56:40.792Z,18.50
2023-12-31T02:59:09.352Z,18.30
2023-12-31T03:01:37.674Z,16.10
2023-12-31T03:04:06.518Z,18.10
2023-12-31T03:06:38.010Z,19.40
2023-12-31T03:09:08.073Z,18.80
2023-12-31T03:11:36.358Z,18.90
2023-12-31T03:14:04.741Z,19.20
2023-12-31T03:16:32.821Z,18.70
2023-12-31T03:19:01.200Z,20.20
2023-12-31T03:21:29.764Z,19.10
2023-12-31T03:23:58.427Z,20.70
2023-12-31T03:26:26.857Z,19.40
2023-12-31T03:28:55.035Z,17.80
2023-12-31T03:31:23.554Z,20.90
2023-12-31T03:33:51.653Z,17.80
2023-12-31T03:36:19.927Z,18.90
2023-12-31T03:38:50.273Z,16.90
2023-12-31T03:41:18.386Z,18.90
2023-12-31T03:43:46.467Z,18.20
2023-12-31T03:46:15.420Z,22.60
2023-12-31T03:48:43.950Z,17.80
2023-12-31T03:51:12.297Z,18.60
2023-12-31T03:53:42.477Z,20.00
2023-12-31T03:56:11.099Z,20.10
2023-12-31T03:58:39.512Z,18.00
2023-12-31T04:01:07.834Z,19.20
2023-12-31T04:03:36.136Z,23.30
2023-12-31T04:06:05.564Z,20.50
2023-12-31T04:08:34.073Z,19.60
2023-12-31T04:11:02.390Z,19.20
2023-12-31T04:13:31.286Z,17.20
2023-12-31T04:15:59.607Z,20.20
2023-12-31T04:18:27.761Z,20.50
2023-12-31T04:20:56.609Z,19.70
2023-12-31T04:23:24.755Z,18.60
2023-12-31T04:25:54.070Z,18.10
2023-12-31T04:28:22.414Z,21.90
2023-12-31T04:30:51.179Z,20.80
2023-12-31T04:33:20.461Z,19.30
2023-12-31T04:35:51.300Z,18.60
2023-12-31T04:38:20.236Z,17.20
2023-12-31T04:40:49.940Z,18.30
2023-12-31T04:43:18.466Z,18.70
2023-12-31T04:45:46.517Z,19.80
2023-12-31T04:48:15.910Z,17.10
2023-12-31T04:50:44.626Z,18.40
2023-12-31T04:53:12.801Z,18.20
2023-12-31T04:55:40.982Z,22.00
2023-12-31T04:58:09.735Z,19.10
2023-12-31T05:00:37.991Z,18.00
2023-12-31T05:03:06.397Z,18.70
2023-12-31T05:05:34.917Z,18.50
2023-12-31T05:08:03.352Z,19.50
2023-12-31T05:10:31.533Z,21.00
2023-12-31T05:12:59.826Z,17.80
2023-12-31T05:15:27.956Z,18.50
2023-12-31T05:17:56.732Z,19.40
2023-12-31T05:20:24.867Z,17.00
2023-12-31T05:22:52.971Z,20.30
2023-12-31T05:25:21.342Z,18.70
2023-12-31T05:27:49.418Z,21.90
2023-12-31T05:30:17.828Z,18.90
2023-12-31T05:32:46.202Z,17.70
2023-12-31T05:35:14.584Z,18.70
2023-12-31T05:37:42.692Z,17.90
2023-12-31T05:40:12.221Z,17.10
2023-12-31T05:42:40.329Z,18.30
2023-12-31T05:45:09.111Z,19.20
2023-12-31T05:47:45.911Z,18.60
2023-12-31T05:50:16.008Z,19.20
2023-12-31T05:52:44.518Z,18.20
2023-12-31T05:55:12.595Z,15.70
2023-12-31T05:57:42.167Z,18.50
2023-12-31T06:00:11.056Z,18.70
2023-12-31T06:02:43.237Z,20.00
2023-12-31T06:05:11.715Z,19.60
2023-12-31T06:07:39.977Z,21.40
2023-12-31T06:10:08.880Z,16.70
2023-12-31T06:12:38.147Z,19.20
2023-12-31T06:15:07.862Z,16.50
2023-12-31T06:17:40.189Z,17.60
2023-12-31T06:20:08.885Z,17.50
2023-12-31T06:22:37.178Z,17.30
2023-12-31T06:25:06.275Z,18.10
2023-12-31T06:27:35.002Z,16.90
2023-12-31T06:30:06.795Z,18.60
2023-12-31T06:32:35.051Z,14.90
2023-12-31T06:35:04.451Z,19.50
2023-12-31T06:37:32.951Z,18.80
2023-12-31T06:40:01.424Z,17.90
2023-12-31T06:42:29.676Z,19.90
2023-12-31T06:44:57.839Z,19.50
2023-12-31T06:47:26.247Z,18.80
2023-12-31T06:49:54.823Z,17.00
2023-12-31T06:52:22.857Z,16.70
2023-12-31T06:54:51.040Z,16.30
2023-12-31T06:57:19.982Z,18.30
2023-12-31T06:59:48.220Z,18.10
2023-12-31T07:02:16.850Z,17.10
2023-12-31T07:04:45.328Z,19.40
2023-12-31T07:07:13.600Z,16.30
2023-12-31T07:09:41.636Z,17.50
2023-12-31T07:12:09.805Z,17.40
2023-12-31T07:14:37.831Z,17.80
2023-12-31T07:17:06.050Z,16.80
2023-12-31T07:19:34.453Z,16.50
2023-12-31T07:22:02.406Z,16.30
2023-12-31T07:24:30.570Z,18.40
2023-12-31T07:26:58.604Z,18.90
2023-12-31T07:29:27.025Z,17.60
2023-12-31T07:31:55.399Z,18.10
2023-12-31T07:34:23.923Z,19.30
2023-12-31T07:36:51.957Z,19.60
2023-12-31T07:39:19.990Z,16.10
2023-12-31T07:41:48.126Z,16.50
2023-12-31T07:44:21.031Z,19.50
2023-12-31T07:46:49.553Z,17.90
2023-12-31T07:49:19.528Z,15.50
2023-12-31T07:51:47.854Z,18.50
2023-12-31T07:54:15.922Z,19.40
2023-12-31T07:56:44.109Z,16.90
2023-12-31T07:59:12.171Z,18.40
2023-12-31T08:01:40.360Z,18.20
2023-12-31T08:04:09.824Z,17.70
2023-12-31T08:06:38.503Z,18.60
2023-12-31T08:09:07.147Z,18.80
2023-12-31T08:11:35.389Z,17.50
2023-12-31T08:14:04.395Z,18.10
2023-12-31T08:16:32.611Z,19.20
2023-12-31T08:19:01.289Z,20.60
2023-12-31T08:21:29.455Z,19.10
2023-12-31T08:23:57.692Z,20.70
2023-12-31T08:26:26.521Z,19.30
2023-12-31T08:28:54.625Z,20.30
2023-12-31T08:31:22.799Z,20.30
2023-12-31T08:33:51.140Z,22.10
2023-12-31T08:36:22.152Z,20.60
2023-12-31T08:38:50.166Z,21.80
2023-12-31T08:41:18.409Z,24.00
2023-12-31T08:43:47.164Z,22.90
2023-12-31T08:46:15.788Z,20.70
2023-12-31T08:48:44.241Z,22.10
2023-12-31T08:51:12.349Z,21.60
2023-12-31T08:53:40.897Z,23.10
2023-12-31T08:56:08.971Z,21.10
2023-12-31T08:58:36.972Z,22.00
2023-12-31T09:01:05.235Z,20.40
2023-12-31T09:03:33.514Z,24.10
2023-12-31T09:06:01.854Z,22.60
2023-12-31T09:08:30.150Z,22.40
2023-12-31T09:10:58.488Z,19.80
2023-12-31T09:13:27.851Z,19.30
2023-12-31T09:15:57.066Z,18.60
2023-12-31T09:18:25.362Z,17.50
2023-12-31T09:20:53.678Z,17.20
2023-12-31T09:23:22.061Z,17.60
2023-12-31T09:25:50.388Z,19.10
2023-12-31T09:28:18.776Z,18.00
2023-12-31T09:30:46.954Z,18.90
2023-12-31T09:33:15.082Z,16.70
2023-12-31T09:35:43.130Z,18.00
2023-12-31T09:38:11.350Z,17.90
2023-12-31T09:40:39.459Z,19.20
2023-12-31T09:43:07.934Z,16.00
2023-12-31T09:45:36.046Z,19.00
2023-12-31T09:48:04.798Z,17.60
2023-12-31T09:50:33.222Z,18.90
2023-12-31T09:53:04.677Z,17.90
2023-12-31T09:55:34.670Z,21.50
2023-12-31T09:58:04.157Z,19.80
2023-12-31T10:00:32.154Z,17.90
2023-12-31T10:03:00.951Z,17.00
2023-12-31T10:05:29.158Z,17.60
2023-12-31T10:07:57.376Z,18.40
2023-12-31T10:10:26.574Z,18.40
2023-12-31T10:12:54.826Z,20.50
2023-12-31T10:15:23.223Z,21.40
2023-12-31T10:17:51.541Z,22.00
2023-12-31T10:20:22.621Z,20.70
2023-12-31T10:22:50.611Z,22.70
2023-12-31T10:25:21.604Z,25.60
2023-12-31T10:27:50.000Z,24.40
2023-12-31T10:30:18.864Z,22.30
2023-12-31T10:32:47.453Z,24.60
2023-12-31T10:35:19.794Z,24.20
2023-12-31T10:37:48.398Z,22.90
2023-12-31T10:40:21.159Z,23.00
2023-12-31T10:42:51.095Z,22.20
2023-12-31T10:45:20.575Z,22.40
2023-12-31T10:47:54.494Z,20.30
2023-12-31T10:50:26.588Z,18.70
2023-12-31T10:52:58.560Z,22.60
2023-12-31T10:55:27.752Z,19.60
2023-12-31T10:57:56.101Z,20.90
2023-12-31T11:00:24.429Z,18.90
2023-12-31T11:02:54.998Z,19.10
2023-12-31T11:05:23.401Z,16.50
2023-12-31T11:07:51.649Z,19.80
2023-12-31T11:10:20.017Z,18.80
2023-12-31T11:12:50.223Z,16.80
2023-12-31T11:15:20.125Z,19.40
2023-12-31T11:18:13.178Z,18.00
2023-12-31T11:20:55.952Z,20.10
2023-12-31T11:24:20.022Z,38.70
2023-12-31T11:27:23.986Z,18.60
2023-12-31T11:29:53.969Z,18.20
2023-12-31T11:32:22.322Z,19.40
2023-12-31T11:34:53.770Z,19.30
2023-12-31T11:37:25.129Z,19.40
2023-12-31T11:39:56.789Z,18.40
2023-12-31T11:42:26.739Z,35.30
2023-12-31T11:44:56.209Z,36.70
2023-12-31T11:47:28.233Z,19.70
2023-12-31T11:49:59.267Z,40.00
2023-12-31T11:52:39.193Z,17.10
2023-12-31T11:55:11.717Z,18.30
2023-12-31T11:57:44.792Z,19.00
2023-12-31T12:00:13.589Z,39.90
2023-12-31T12:02:41.664Z,21.10
2023-12-31T12:05:10.745Z,18.80
2023-12-31T12:07:42.353Z,22.50
2023-12-31T12:10:11.004Z,21.60
2023-12-31T12:12:39.064Z,20.50
2023-12-31T12:15:08.039Z,40.20
2023-12-31T12:17:36.324Z,37.40
2023-12-31T12:20:05.918Z,20.20
2023-12-31T12:22:34.983Z,17.20
2023-12-31T12:25:03.199Z,18.90
2023-12-31T12:27:31.348Z,34.50
2023-12-31T12:29:59.652Z,35.20
2023-12-31T12:32:27.766Z,16.40
2023-12-31T12:35:00.560Z,13.10
2023-12-31T12:37:29.746Z,14.80
2023-12-31T12:39:58.278Z,23.90
2023-12-31T12:42:27.411Z,21.90
2023-12-31T12:44:56.761Z,9.50
2023-12-31T12:47:25.138Z,19.80
2023-12-31T12:49:53.317Z,20.70
2023-12-31T12:52:21.583Z,9.90
2023-12-31T12:54:49.877Z,7.70
2023-12-31T12:57:17.885Z,19.30
2023-12-31T12:59:45.998Z,9.80
2023-12-31T13:02:14.047Z,9.40
2023-12-31T13:04:42.214Z,8.40
2023-12-31T13:07:10.760Z,18.40
2023-12-31T13:09:40.080Z,19.30
2023-12-31T13:12:08.443Z,9.90
2023-12-31T13:14:39.775Z,20.50
2023-12-31T13:17:07.858Z,8.60
2023-12-31T13:19:36.136Z,8.90
2023-12-31T13:22:05.636Z,8.20
2023-12-31T13:24:34.916Z,18.00
2023-12-31T13:27:03.513Z,8.50
2023-12-31T13:29:31.559Z,8.50
2023-12-31T13:31:59.763Z,8.50
2023-12-31T13:34:28.054Z,17.40
2023-12-31T13:36:57.320Z,8.10
2023-12-31T13:39:25.591Z,16.80
2023-12-31T13:41:53.701Z,8.10
2023-12-31T13:44:21.856Z,8.20
2023-12-31T13:46:50.615Z,9.10
2023-12-31T13:49:19.172Z,8.20
2023-12-31T13:51:48.630Z,6.90
2023-12-31T13:54:19.290Z,17.10
2023-12-31T13:56:47.229Z,8.70
2023-12-31T13:59:16.161Z,8.50
2023-12-31T14:01:44.593Z,17.10
2023-12-31T14:04:12.821Z,8.90
2023-12-31T14:06:43.703Z,8.20
2023-12-31T14:09:11.876Z,8.10
2023-12-31T14:11:40.101Z,8.10
2023-12-31T14:14:08.363Z,18.80
2023-12-31T14:16:36.840Z,9.50
2023-12-31T14:19:13.543Z,7.60
2023-12-31T14:21:49.937Z,18.70
2023-12-31T14:24:17.987Z,8.90
2023-12-31T14:26:46.187Z,8.60
2023-12-31T14:29:14.782Z,8.60
2023-12-31T14:31:42.956Z,10.70
2023-12-31T14:34:12.851Z,8.70
2023-12-31T14:36:41.287Z,9.20
2023-12-31T14:39:09.510Z,7.50
2023-12-31T14:41:38.146Z,9.40
2023-12-31T14:44:06.442Z,9.00
2023-12-31T14:46:34.716Z,8.20
2023-12-31T14:49:04.410Z,7.90
2023-12-31T14:51:32.528Z,8.90
2023-12-31T14:54:00.619Z,19.00
2023-12-31T14:56:34.064Z,8.40
2023-12-31T14:59:02.189Z,8.60
2023-12-31T15:01:30.988Z,9.30
2023-12-31T15:03:59.091Z,9.80
2023-12-31T15:06:27.331Z,8.20
2023-12-31T15:08:55.817Z,10.20
2023-12-31T15:11:34.549Z,9.70
2023-12-31T15:14:08.392Z,9.70
2023-12-31T15:16:36.721Z,10.70
2023-12-31T15:19:05.691Z,11.50
2023-12-31T15:21:33.869Z,8.80
2023-12-31T15:24:01.944Z,11.40
2023-12-31T15:26:29.986Z,9.50
2023-12-31T15:28:58.053Z,10.90
2023-12-31T15:31:26.171Z,15.30
2023-12-31T15:33:54.526Z,11.50
2023-12-31T15:36:24.021Z,12.50
2023-12-31T15:38:52.187Z,12.30
2023-12-31T15:41:20.507Z,17.90
2023-12-31T15:43:48.596Z,14.70
2023-12-31T15:46:16.598Z,14.70
2023-12-31T15:48:44.615Z,12.30
2023-12-31T15:51:13.086Z,14.10
2023-12-31T15:53:41.051Z,16.40
2023-12-31T15:56:09.194Z,13.60
2023-12-31T15:58:37.436Z,13.80
2023-12-31T16:01:05.763Z,19.00
2023-12-31T16:03:33.997Z,15.20
2023-12-31T16:06:02.240Z,14.80
2023-12-31T16:08:30.364Z,13.80
2023-12-31T16:10:58.488Z,18.00
2023-12-31T16:13:26.639Z,14.40
2023-12-31T16:15:55.017Z,14.30
2023-12-31T16:18:23.179Z,15.90
2023-12-31T16:20:52.076Z,17.00
2023-12-31T16:23:20.346Z,15.50
2023-12-31T16:25:48.438Z,16.50
2023-12-31T16:28:16.905Z,15.60
2023-12-31T16:30:45.886Z,15.90
2023-12-31T16:33:14.021Z,17.50
2023-12-31T16:35:42.170Z,14.60
2023-12-31T16:38:11.136Z,14.20
2023-12-31T16:40:39.474Z,15.70
2023-12-31T16:43:10.077Z,13.10
2023-12-31T16:45:39.793Z,14.60
2023-12-31T16:48:09.544Z,15.00
2023-12-31T16:50:38.200Z,16.70
2023-12-31T16:53:06.296Z,13.10
2023-12-31T16:55:34.816Z,14.20
2023-12-31T16:58:03.526Z,12.50
2023-12-31T17:00:33.672Z,12.40
2023-12-31T17:03:02.477Z,15.50
2023-12-31T17:05:32.105Z,12.00
2023-12-31T17:08:00.339Z,12.90
2023-12-31T17:10:28.778Z,12.00
2023-12-31T17:12:59.762Z,11.60
2023-12-31T17:15:28.443Z,14.50
2023-12-31T17:17:56.528Z,15.90
2023-12-31T17:20:24.736Z,13.50
2023-12-31T17:22:53.636Z,15.20
2023-12-31T17:25:22.001Z,15.10
2023-12-31T17:27:50.885Z,18.60
2023-12-31T17:30:19.362Z,13.50
2023-12-31T17:32:47.459Z,15.30
2023-12-31T17:35:15.988Z,16.30
2023-12-31T17:37:44.185Z,15.00
2023-12-31T17:40:13.100Z,16.40
2023-12-31T17:42:41.089Z,19.80
2023-12-31T17:45:10.366Z,20.10
2023-12-31T17:47:38.974Z,16.30
2023-12-31T17:50:07.957Z,28.10
2023-12-31T17:52:36.238Z,28.80
2023-12-31T17:55:04.849Z,26.00
2023-12-31T17:57:33.304Z,22.20
2023-12-31T18:00:01.385Z,26.80
2023-12-31T18:02:29.922Z,23.50
2023-12-31T18:04:58.163Z,22.10
2023-12-31T18:07:26.361Z,23.70
2023-12-31T18:09:55.254Z,24.10
2023-12-31T18:12:24.064Z,22.60
2023-12-31T18:14:52.115Z,17.30
2023-12-31T18:17:20.392Z,21.30
2023-12-31T18:19:48.457Z,21.10
2023-12-31T18:22:16.484Z,23.20
2023-12-31T18:24:44.484Z,19.20
2023-12-31T18:27:13.632Z,20.80
2023-12-31T18:29:44.205Z,19.30
2023-12-31T18:32:12.699Z,18.10
2023-12-31T18:34:40.938Z,20.30
2023-12-31T18:37:09.100Z,22.70
2023-12-31T18:39:37.124Z,25.30
2023-12-31T18:42:05.973Z,27.90
2023-12-31T18:44:34.248Z,26.40
2023-12-31T18:47:02.497Z,27.10
2023-12-31T18:49:30.794Z,28.30
2023-12-31T18:51:59.233Z,28.40
2023-12-31T18:54:27.257Z,22.40
2023-12-31T18:56:55.605Z,24.70
2023-12-31T18:59:23.872Z,23.80
2023-12-31T19:01:51.851Z,24.80
2023-12-31T19:04:20.005Z,23.90
2023-12-31T19:06:48.293Z,19.00
2023-12-31T19:09:18.041Z,21.80
2023-12-31T19:11:46.072Z,21.60
2023-12-31T19:14:14.202Z,22.80
2023-12-31T19:16:42.167Z,23.80
2023-12-31T19:19:10.444Z,24.20
2023-12-31T19:21:38.540Z,18.60
2023-12-31T19:24:07.315Z,36.90
2023-12-31T19:26:36.637Z,25.00
2023-12-31T19:29:04.929Z,22.80
2023-12-31T19:31:33.417Z,29.00
2023-12-31T19:34:01.513Z,23.20
2023-12-31T19:36:30.755Z,22.40
2023-12-31T19:38:59.079Z,21.50
2023-12-31T19:41:27.138Z,21.80
2023-12-31T19:46:26.031Z,20.60
2023-12-31T19:48:54.201Z,20.00
2023-12-31T19:51:22.419Z,19.20
2023-12-31T19:53:50.656Z,23.40
2023-12-31T19:56:19.317Z,20.90
2023-12-31T19:58:49.255Z,21.60
2023-12-31T20:01:17.786Z,20.30
2023-12-31T20:03:46.184Z,27.70
2023-12-31T20:06:14.679Z,22.50
2023-12-31T20:08:43.165Z,23.20
2023-12-31T20:11:11.186Z,25.40
2023-12-31T20:13:40.059Z,25.30
2023-12-31T20:16:08.125Z,22.40
2023-12-31T20:18:36.201Z,26.40
2023-12-31T20:21:04.760Z,29.20
2023-12-31T20:23:32.748Z,33.70
2023-12-31T20:26:00.881Z,26.20
2023-12-31T20:28:29.110Z,23.90
2023-12-31T20:30:57.365Z,21.90
2023-12-31T20:33:25.614Z,28.70
2023-12-31T20:35:53.992Z,23.80
2023-12-31T20:38:22.150Z,29.20
2023-12-31T20:40:50.507Z,24.40
2023-12-31T20:43:18.708Z,29.60
2023-12-31T20:45:46.981Z,25.70
2023-12-31T20:48:15.359Z,33.60
2023-12-31T20:50:46.093Z,31.60
2023-12-31T20:53:14.664Z,22.20
2023-12-31T20:55:45.207Z,24.40
2023-12-31T20:58:13.186Z,30.50
2023-12-31T21:00:41.232Z,30.20
2023-12-31T21:03:11.856Z,29.40
2023-12-31T21:05:40.814Z,27.30
2023-12-31T21:08:09.312Z,24.70
2023-12-31T21:10:37.404Z,25.00
2023-12-31T21:13:05.951Z,25.40
2023-12-31T21:15:34.522Z,31.20
2023-12-31T21:18:02.616Z,29.70
2023-12-31T21:20:31.145Z,32.10
2023-12-31T21:23:02.025Z,27.70
2023-12-31T21:25:39.708Z,24.10
2023-12-31T21:28:08.893Z,23.10
2023-12-31T21:30:37.042Z,25.50
2023-12-31T21:33:06.051Z,25.90
2023-12-31T21:35:34.272Z,26.50
2023-12-31T21:38:02.746Z,26.20
2023-12-31T21:40:31.012Z,28.60
2023-12-31T21:42:59.607Z,24.10
2023-12-31T21:45:27.745Z,21.40
2023-12-31T21:47:56.307Z,24.40
2023-12-31T21:50:24.338Z,25.80
2023-12-31T21:52:52.489Z,24.40
2023-12-31T21:55:28.617Z,25.70
2023-12-31T21:58:08.366Z,26.20
2023-12-31T22:00:38.260Z,29.40
2023-12-31T22:03:06.615Z,31.00
2023-12-31T22:05:37.072Z,44.20
2023-12-31T22:08:06.913Z,223.00
2023-12-31T22:10:35.303Z,131.80
2023-12-31T22:13:05.106Z,150.30
2023-12-31T22:15:33.697Z,111.00
2023-12-31T22:18:03.024Z,76.20
2023-12-31T22:20:31.495Z,67.80
2023-12-31T22:22:59.851Z,64.60
2023-12-31T22:25:28.244Z,38.50
2023-12-31T22:27:56.377Z,34.00
2023-12-31T22:30:24.407Z,40.20
2023-12-31T22:32:52.712Z,33.90
2023-12-31T22:35:21.627Z,32.00
2023-12-31T22:37:49.659Z,27.20
2023-12-31T22:40:17.899Z,25.70
2023-12-31T22:42:45.996Z,25.50
2023-12-31T22:45:14.342Z,32.60
2023-12-31T22:47:44.493Z,29.20
2023-12-31T22:50:12.743Z,30.80
2023-12-31T22:52:40.853Z,33.80
2023-12-31T22:55:09.000Z,43.20
2023-12-31T22:57:37.059Z,34.40
2023-12-31T23:00:08.348Z,32.40
2023-12-31T23:02:36.585Z,35.60
2023-12-31T23:05:05.647Z,34.80
2023-12-31T23:07:33.697Z,37.20
2023-12-31T23:10:02.138Z,33.80
2023-12-31T23:12:30.364Z,45.40
2023-12-31T23:14:58.440Z,35.60
2023-12-31T23:17:26.640Z,36.40
2023-12-31T23:19:55.253Z,38.00
2023-12-31T23:22:23.398Z,37.30
2023-12-31T23:24:51.518Z,47.00
2023-12-31T23:27:19.712Z,45.60
2023-12-31T23:29:48.091Z,47.40
2023-12-31T23:32:16.107Z,47.70
2023-12-31T23:34:44.427Z,53.70
2023-12-31T23:37:12.898Z,62.00
2023-12-31T23:39:41.274Z,59.80
2023-12-31T23:42:09.495Z,60.70
2023-12-31T23:44:37.715Z,61.10
2023-12-31T23:47:05.917Z,67.00
2023-12-31T23:49:34.081Z,80.70
2023-12-31T23:52:03.590Z,57.60
2023-12-31T23:54:31.680Z,57.60
2023-12-31T23:57:00.344Z,54.30
2023-12-31T23:59:28.608Z,66.20
